sensor_id;sensor_type;location;lat;lon;timestamp;P1;durP1;ratioP1;P2;durP2;ratioP2
50709;SDS011;37033;49.994;21.992;2023-05-07T00:00:38;14.40;;;10.40;;
50709;SDS011;37033;49.994;21.992;2023-05-07T00:03:21;13.40;;;9.70;;
50709;SDS011;37033;49.994;21.992;2023-05-07T00:05:52;15.50;;;9.70;;
50709;SDS011;37033;49.994;21.992;2023-05-07T00:08:23;11.10;;;9.50;;
50709;SDS011;37033;49.994;21.992;2023-05-07T00:10:54;10.50;;;9.10;;
50709;SDS011;37033;49.994;21.992;2023-05-07T00:13:24;12.20;;;9.20;;
50709;SDS011;37033;49.994;21.992;2023-05-07T00:15:58;11.50;;;7.60;;
50709;SDS011;37033;49.994;21.992;2023-05-07T00:18:29;10.40;;;7.90;;
50709;SDS011;37033;49.994;21.992;2023-05-07T00:21:00;11.50;;;8.40;;
50709;SDS011;37033;49.994;21.992;2023-05-07T00:23:30;9.30;;;8.40;;
50709;SDS011;37033;49.994;21.992;2023-05-07T00:26:01;8.80;;;7.90;;
50709;SDS011;37033;49.994;21.992;2023-05-07T00:28:32;9.60;;;7.80;;
50709;SDS011;37033;49.994;21.992;2023-05-07T00:31:03;9.30;;;7.80;;
50709;SDS011;37033;49.994;21.992;2023-05-07T00:33:37;9.50;;;8.10;;
50709;SDS011;37033;49.994;21.992;2023-05-07T00:36:08;10.20;;;8.80;;
50709;SDS011;37033;49.994;21.992;2023-05-07T00:38:39;10.10;;;7.90;;
50709;SDS011;37033;49.994;21.992;2023-05-07T00:41:10;10.20;;;8.40;;
50709;SDS011;37033;49.994;21.992;2023-05-07T00:43:41;10.20;;;8.30;;
50709;SDS011;37033;49.994;21.992;2023-05-07T00:46:12;8.60;;;7.70;;
50709;SDS011;37033;49.994;21.992;2023-05-07T00:48:43;11.40;;;8.40;;
50709;SDS011;37033;49.994;21.992;2023-05-07T00:51:15;11.20;;;8.20;;
50709;SDS011;37033;49.994;21.992;2023-05-07T00:53:46;14.20;;;8.00;;
50709;SDS011;37033;49.994;21.992;2023-05-07T00:56:17;11.30;;;8.80;;
50709;SDS011;37033;49.994;21.992;2023-05-07T00:58:48;11.40;;;8.60;;
50709;SDS011;37033;49.994;21.992;2023-05-07T01:01:21;10.80;;;8.50;;
50709;SDS011;37033;49.994;21.992;2023-05-07T01:03:53;11.10;;;8.30;;
50709;SDS011;37033;49.994;21.992;2023-05-07T01:06:24;10.60;;;8.40;;
50709;SDS011;37033;49.994;21.992;2023-05-07T01:08:57;14.20;;;9.40;;
50709;SDS011;37033;49.994;21.992;2023-05-07T01:11:28;12.60;;;9.50;;
50709;SDS011;37033;49.994;21.992;2023-05-07T01:13:59;14.10;;;9.20;;
50709;SDS011;37033;49.994;21.992;2023-05-07T01:16:30;12.50;;;8.40;;
50709;SDS011;37033;49.994;21.992;2023-05-07T01:19:01;11.60;;;8.30;;
50709;SDS011;37033;49.994;21.992;2023-05-07T01:21:33;11.40;;;8.50;;
50709;SDS011;37033;49.994;21.992;2023-05-07T01:24:06;12.70;;;8.60;;
50709;SDS011;37033;49.994;21.992;2023-05-07T01:26:37;11.30;;;8.40;;
50709;SDS011;37033;49.994;21.992;2023-05-07T01:29:08;10.30;;;8.10;;
50709;SDS011;37033;49.994;21.992;2023-05-07T01:31:39;11.90;;;9.10;;
50709;SDS011;37033;49.994;21.992;2023-05-07T01:34:12;11.70;;;8.90;;
50709;SDS011;37033;49.994;21.992;2023-05-07T01:36:45;10.70;;;8.50;;
50709;SDS011;37033;49.994;21.992;2023-05-07T01:39:17;9.70;;;8.20;;
50709;SDS011;37033;49.994;21.992;2023-05-07T01:41:48;10.50;;;8.20;;
50709;SDS011;37033;49.994;21.992;2023-05-07T01:44:19;9.60;;;8.30;;
50709;SDS011;37033;49.994;21.992;2023-05-07T01:46:50;9.40;;;8.10;;
50709;SDS011;37033;49.994;21.992;2023-05-07T01:49:22;13.80;;;9.50;;
50709;SDS011;37033;49.994;21.992;2023-05-07T01:51:53;12.80;;;8.90;;
50709;SDS011;37033;49.994;21.992;2023-05-07T01:54:26;11.80;;;9.00;;
50709;SDS011;37033;49.994;21.992;2023-05-07T01:56:57;15.20;;;9.50;;
50709;SDS011;37033;49.994;21.992;2023-05-07T01:59:27;12.80;;;9.10;;
50709;SDS011;37033;49.994;21.992;2023-05-07T02:01:58;12.10;;;9.10;;
50709;SDS011;37033;49.994;21.992;2023-05-07T02:04:29;11.10;;;9.00;;
50709;SDS011;37033;49.994;21.992;2023-05-07T02:07:00;11.80;;;8.60;;
50709;SDS011;37033;49.994;21.992;2023-05-07T02:09:31;12.60;;;8.60;;
50709;SDS011;37033;49.994;21.992;2023-05-07T02:12:01;10.80;;;8.20;;
50709;SDS011;37033;49.994;21.992;2023-05-07T02:14:33;10.60;;;7.80;;
50709;SDS011;37033;49.994;21.992;2023-05-07T02:17:07;11.90;;;8.30;;
50709;SDS011;37033;49.994;21.992;2023-05-07T02:19:37;9.40;;;8.10;;
50709;SDS011;37033;49.994;21.992;2023-05-07T02:22:09;12.50;;;9.00;;
50709;SDS011;37033;49.994;21.992;2023-05-07T02:24:40;12.30;;;9.00;;
50709;SDS011;37033;49.994;21.992;2023-05-07T02:27:12;12.20;;;9.40;;
50709;SDS011;37033;49.994;21.992;2023-05-07T02:29:43;13.50;;;10.30;;
50709;SDS011;37033;49.994;21.992;2023-05-07T02:32:13;16.80;;;10.40;;
50709;SDS011;37033;49.994;21.992;2023-05-07T02:34:44;16.20;;;10.30;;
50709;SDS011;37033;49.994;21.992;2023-05-07T02:37:15;13.00;;;9.60;;
50709;SDS011;37033;49.994;21.992;2023-05-07T02:39:46;15.00;;;10.90;;
50709;SDS011;37033;49.994;21.992;2023-05-07T02:42:16;17.00;;;11.70;;
50709;SDS011;37033;49.994;21.992;2023-05-07T02:44:47;18.70;;;11.20;;
50709;SDS011;37033;49.994;21.992;2023-05-07T02:47:18;18.40;;;10.90;;
50709;SDS011;37033;49.994;21.992;2023-05-07T02:49:49;20.50;;;11.80;;
50709;SDS011;37033;49.994;21.992;2023-05-07T02:52:22;21.10;;;12.00;;
50709;SDS011;37033;49.994;21.992;2023-05-07T02:54:53;20.30;;;11.50;;
50709;SDS011;37033;49.994;21.992;2023-05-07T02:57:26;19.50;;;11.50;;
50709;SDS011;37033;49.994;21.992;2023-05-07T02:59:58;23.90;;;13.10;;
50709;SDS011;37033;49.994;21.992;2023-05-07T03:02:38;24.30;;;13.40;;
50709;SDS011;37033;49.994;21.992;2023-05-07T03:05:09;24.30;;;13.10;;
50709;SDS011;37033;49.994;21.992;2023-05-07T03:07:42;23.80;;;12.40;;
50709;SDS011;37033;49.994;21.992;2023-05-07T03:10:15;22.10;;;12.60;;
50709;SDS011;37033;49.994;21.992;2023-05-07T03:12:46;23.70;;;13.80;;
50709;SDS011;37033;49.994;21.992;2023-05-07T03:15:17;20.60;;;13.10;;
50709;SDS011;37033;49.994;21.992;2023-05-07T03:17:48;32.40;;;13.70;;
50709;SDS011;37033;49.994;21.992;2023-05-07T03:20:19;25.80;;;13.70;;
50709;SDS011;37033;49.994;21.992;2023-05-07T03:22:49;26.70;;;13.80;;
50709;SDS011;37033;49.994;21.992;2023-05-07T03:25:20;25.30;;;14.50;;
50709;SDS011;37033;49.994;21.992;2023-05-07T03:27:51;25.00;;;12.70;;
50709;SDS011;37033;49.994;21.992;2023-05-07T03:30:22;22.40;;;12.70;;
50709;SDS011;37033;49.994;21.992;2023-05-07T03:32:53;19.70;;;9.90;;
50709;SDS011;37033;49.994;21.992;2023-05-07T03:35:26;13.10;;;8.70;;
50709;SDS011;37033;49.994;21.992;2023-05-07T03:37:57;10.80;;;8.30;;
50709;SDS011;37033;49.994;21.992;2023-05-07T03:40:28;13.10;;;8.70;;
50709;SDS011;37033;49.994;21.992;2023-05-07T03:42:58;13.70;;;8.90;;
50709;SDS011;37033;49.994;21.992;2023-05-07T03:45:30;13.00;;;9.10;;
50709;SDS011;37033;49.994;21.992;2023-05-07T03:48:00;12.00;;;7.90;;
50709;SDS011;37033;49.994;21.992;2023-05-07T03:50:31;13.00;;;8.50;;
50709;SDS011;37033;49.994;21.992;2023-05-07T03:53:02;14.80;;;8.10;;
50709;SDS011;37033;49.994;21.992;2023-05-07T03:55:33;13.00;;;8.10;;
50709;SDS011;37033;49.994;21.992;2023-05-07T03:58:03;12.60;;;8.20;;
50709;SDS011;37033;49.994;21.992;2023-05-07T04:00:34;11.50;;;8.40;;
50709;SDS011;37033;49.994;21.992;2023-05-07T04:03:06;14.10;;;8.40;;
50709;SDS011;37033;49.994;21.992;2023-05-07T04:05:37;12.70;;;8.00;;
50709;SDS011;37033;49.994;21.992;2023-05-07T04:08:07;13.80;;;8.40;;
50709;SDS011;37033;49.994;21.992;2023-05-07T04:10:38;13.90;;;7.60;;
50709;SDS011;37033;49.994;21.992;2023-05-07T04:13:09;11.50;;;7.50;;
50709;SDS011;37033;49.994;21.992;2023-05-07T04:15:43;14.40;;;8.30;;
50709;SDS011;37033;49.994;21.992;2023-05-07T04:18:14;15.80;;;8.20;;
50709;SDS011;37033;49.994;21.992;2023-05-07T04:20:44;13.20;;;8.10;;
50709;SDS011;37033;49.994;21.992;2023-05-07T04:23:15;11.30;;;7.30;;
50709;SDS011;37033;49.994;21.992;2023-05-07T04:25:46;17.30;;;8.30;;
50709;SDS011;37033;49.994;21.992;2023-05-07T04:28:17;18.30;;;9.10;;
50709;SDS011;37033;49.994;21.992;2023-05-07T04:30:51;19.70;;;8.20;;
50709;SDS011;37033;49.994;21.992;2023-05-07T04:33:22;12.20;;;8.50;;
50709;SDS011;37033;49.994;21.992;2023-05-07T04:35:52;11.10;;;7.40;;
50709;SDS011;37033;49.994;21.992;2023-05-07T04:38:23;11.60;;;8.20;;
50709;SDS011;37033;49.994;21.992;2023-05-07T04:40:54;14.00;;;8.90;;
50709;SDS011;37033;49.994;21.992;2023-05-07T04:43:25;13.10;;;7.90;;
50709;SDS011;37033;49.994;21.992;2023-05-07T04:45:56;15.00;;;8.60;;
50709;SDS011;37033;49.994;21.992;2023-05-07T04:48:27;16.40;;;7.70;;
50709;SDS011;37033;49.994;21.992;2023-05-07T04:50:57;13.10;;;7.70;;
50709;SDS011;37033;49.994;21.992;2023-05-07T04:53:28;16.30;;;8.70;;
50709;SDS011;37033;49.994;21.992;2023-05-07T04:55:59;11.50;;;7.50;;
50709;SDS011;37033;49.994;21.992;2023-05-07T04:58:30;16.00;;;9.10;;
50709;SDS011;37033;49.994;21.992;2023-05-07T05:01:04;13.20;;;7.80;;
50709;SDS011;37033;49.994;21.992;2023-05-07T05:03:34;13.10;;;8.10;;
50709;SDS011;37033;49.994;21.992;2023-05-07T05:06:05;11.50;;;7.70;;
50709;SDS011;37033;49.994;21.992;2023-05-07T05:08:36;18.10;;;8.90;;
50709;SDS011;37033;49.994;21.992;2023-05-07T05:11:07;14.50;;;7.80;;
50709;SDS011;37033;49.994;21.992;2023-05-07T05:13:38;13.00;;;7.80;;
50709;SDS011;37033;49.994;21.992;2023-05-07T05:16:09;14.30;;;7.50;;
50709;SDS011;37033;49.994;21.992;2023-05-07T05:18:39;14.60;;;7.60;;
50709;SDS011;37033;49.994;21.992;2023-05-07T05:21:10;15.60;;;8.40;;
50709;SDS011;37033;49.994;21.992;2023-05-07T05:23:41;21.60;;;8.40;;
50709;SDS011;37033;49.994;21.992;2023-05-07T05:26:12;14.10;;;7.80;;
50709;SDS011;37033;49.994;21.992;2023-05-07T05:28:42;14.40;;;7.90;;
50709;SDS011;37033;49.994;21.992;2023-05-07T05:31:13;12.30;;;7.40;;
50709;SDS011;37033;49.994;21.992;2023-05-07T05:33:44;13.60;;;8.20;;
50709;SDS011;37033;49.994;21.992;2023-05-07T05:36:15;18.70;;;8.90;;
50709;SDS011;37033;49.994;21.992;2023-05-07T05:38:46;13.00;;;7.10;;
50709;SDS011;37033;49.994;21.992;2023-05-07T05:41:17;13.50;;;7.60;;
50709;SDS011;37033;49.994;21.992;2023-05-07T05:43:48;16.70;;;8.50;;
50709;SDS011;37033;49.994;21.992;2023-05-07T05:46:19;12.90;;;7.90;;
50709;SDS011;37033;49.994;21.992;2023-05-07T05:48:50;11.50;;;6.50;;
50709;SDS011;37033;49.994;21.992;2023-05-07T05:51:21;8.00;;;5.90;;
50709;SDS011;37033;49.994;21.992;2023-05-07T05:53:52;15.30;;;7.50;;
50709;SDS011;37033;49.994;21.992;2023-05-07T05:56:23;10.10;;;6.70;;
50709;SDS011;37033;49.994;21.992;2023-05-07T05:58:54;10.40;;;6.60;;
50709;SDS011;37033;49.994;21.992;2023-05-07T06:01:24;9.50;;;6.10;;
50709;SDS011;37033;49.994;21.992;2023-05-07T06:03:55;10.20;;;6.70;;
50709;SDS011;37033;49.994;21.992;2023-05-07T06:06:26;11.50;;;6.50;;
50709;SDS011;37033;49.994;21.992;2023-05-07T06:09:00;14.50;;;7.10;;
50709;SDS011;37033;49.994;21.992;2023-05-07T06:11:30;9.40;;;6.10;;
50709;SDS011;37033;49.994;21.992;2023-05-07T06:14:01;9.40;;;6.20;;
50709;SDS011;37033;49.994;21.992;2023-05-07T06:16:37;11.90;;;6.20;;
50709;SDS011;37033;49.994;21.992;2023-05-07T06:19:11;14.70;;;7.10;;
50709;SDS011;37033;49.994;21.992;2023-05-07T06:21:42;11.60;;;6.60;;
50709;SDS011;37033;49.994;21.992;2023-05-07T06:24:13;12.40;;;5.80;;
50709;SDS011;37033;49.994;21.992;2023-05-07T06:26:43;11.40;;;6.60;;
50709;SDS011;37033;49.994;21.992;2023-05-07T06:29:20;12.30;;;6.90;;
50709;SDS011;37033;49.994;21.992;2023-05-07T06:31:50;11.70;;;8.10;;
50709;SDS011;37033;49.994;21.992;2023-05-07T06:34:24;13.70;;;6.60;;
50709;SDS011;37033;49.994;21.992;2023-05-07T06:36:55;8.80;;;5.40;;
50709;SDS011;37033;49.994;21.992;2023-05-07T06:39:25;10.20;;;5.70;;
50709;SDS011;37033;49.994;21.992;2023-05-07T06:41:56;8.10;;;5.60;;
50709;SDS011;37033;49.994;21.992;2023-05-07T06:44:30;14.60;;;6.40;;
50709;SDS011;37033;49.994;21.992;2023-05-07T06:47:01;7.00;;;5.20;;
50709;SDS011;37033;49.994;21.992;2023-05-07T06:49:32;8.70;;;5.80;;
50709;SDS011;37033;49.994;21.992;2023-05-07T06:52:03;14.30;;;7.50;;
50709;SDS011;37033;49.994;21.992;2023-05-07T06:54:34;12.20;;;7.30;;
50709;SDS011;37033;49.994;21.992;2023-05-07T06:57:10;10.90;;;5.10;;
50709;SDS011;37033;49.994;21.992;2023-05-07T06:59:45;13.20;;;5.70;;
50709;SDS011;37033;49.994;21.992;2023-05-07T07:02:19;8.50;;;5.40;;
50709;SDS011;37033;49.994;21.992;2023-05-07T07:04:50;6.80;;;5.70;;
50709;SDS011;37033;49.994;21.992;2023-05-07T07:07:25;16.40;;;6.80;;
50709;SDS011;37033;49.994;21.992;2023-05-07T07:09:56;10.70;;;5.80;;
50709;SDS011;37033;49.994;21.992;2023-05-07T07:12:27;8.40;;;5.30;;
50709;SDS011;37033;49.994;21.992;2023-05-07T07:14:58;8.20;;;5.60;;
50709;SDS011;37033;49.994;21.992;2023-05-07T07:17:28;8.90;;;7.30;;
50709;SDS011;37033;49.994;21.992;2023-05-07T07:19:59;11.40;;;6.20;;
50709;SDS011;37033;49.994;21.992;2023-05-07T07:22:30;10.10;;;6.50;;
50709;SDS011;37033;49.994;21.992;2023-05-07T07:25:01;11.30;;;5.90;;
50709;SDS011;37033;49.994;21.992;2023-05-07T07:27:32;12.00;;;8.70;;
50709;SDS011;37033;49.994;21.992;2023-05-07T07:30:08;12.20;;;8.30;;
50709;SDS011;37033;49.994;21.992;2023-05-07T07:32:39;12.90;;;9.20;;
50709;SDS011;37033;49.994;21.992;2023-05-07T07:35:10;15.10;;;7.90;;
50709;SDS011;37033;49.994;21.992;2023-05-07T07:37:41;8.20;;;6.30;;
50709;SDS011;37033;49.994;21.992;2023-05-07T07:40:17;6.40;;;5.00;;
50709;SDS011;37033;49.994;21.992;2023-05-07T07:42:48;9.60;;;6.40;;
50709;SDS011;37033;49.994;21.992;2023-05-07T07:45:19;10.80;;;6.90;;
50709;SDS011;37033;49.994;21.992;2023-05-07T07:47:51;8.80;;;6.90;;
50709;SDS011;37033;49.994;21.992;2023-05-07T07:50:21;7.90;;;6.00;;
50709;SDS011;37033;49.994;21.992;2023-05-07T07:52:52;10.80;;;5.90;;
50709;SDS011;37033;49.994;21.992;2023-05-07T07:55:26;10.60;;;7.20;;
50709;SDS011;37033;49.994;21.992;2023-05-07T07:57:57;11.80;;;8.50;;
50709;SDS011;37033;49.994;21.992;2023-05-07T08:00:28;14.50;;;8.80;;
50709;SDS011;37033;49.994;21.992;2023-05-07T08:02:59;9.20;;;7.00;;
50709;SDS011;37033;49.994;21.992;2023-05-07T08:05:31;15.40;;;9.30;;
50709;SDS011;37033;49.994;21.992;2023-05-07T08:08:01;23.70;;;12.10;;
50709;SDS011;37033;49.994;21.992;2023-05-07T08:10:34;17.70;;;9.30;;
50709;SDS011;37033;49.994;21.992;2023-05-07T08:13:08;14.20;;;8.00;;
50709;SDS011;37033;49.994;21.992;2023-05-07T08:15:41;11.40;;;6.00;;
50709;SDS011;37033;49.994;21.992;2023-05-07T08:18:12;12.10;;;6.10;;
50709;SDS011;37033;49.994;21.992;2023-05-07T08:20:45;10.90;;;5.70;;
50709;SDS011;37033;49.994;21.992;2023-05-07T08:23:16;10.80;;;7.00;;
50709;SDS011;37033;49.994;21.992;2023-05-07T08:25:48;8.80;;;6.10;;
50709;SDS011;37033;49.994;21.992;2023-05-07T08:28:21;12.30;;;5.60;;
50709;SDS011;37033;49.994;21.992;2023-05-07T08:30:52;9.10;;;6.10;;
50709;SDS011;37033;49.994;21.992;2023-05-07T08:33:24;9.40;;;5.00;;
50709;SDS011;37033;49.994;21.992;2023-05-07T08:36:00;6.40;;;5.10;;
50709;SDS011;37033;49.994;21.992;2023-05-07T08:38:37;11.80;;;5.40;;
50709;SDS011;37033;49.994;21.992;2023-05-07T08:41:13;6.70;;;5.60;;
50709;SDS011;37033;49.994;21.992;2023-05-07T08:43:45;7.60;;;5.80;;
50709;SDS011;37033;49.994;21.992;2023-05-07T08:46:21;10.20;;;5.80;;
50709;SDS011;37033;49.994;21.992;2023-05-07T08:48:54;11.20;;;5.80;;
50709;SDS011;37033;49.994;21.992;2023-05-07T08:51:28;7.30;;;6.00;;
50709;SDS011;37033;49.994;21.992;2023-05-07T08:54:02;6.60;;;5.50;;
50709;SDS011;37033;49.994;21.992;2023-05-07T08:56:36;13.90;;;6.70;;
50709;SDS011;37033;49.994;21.992;2023-05-07T08:59:10;7.30;;;6.20;;
50709;SDS011;37033;49.994;21.992;2023-05-07T09:01:41;8.60;;;5.60;;
50709;SDS011;37033;49.994;21.992;2023-05-07T09:04:12;10.80;;;5.80;;
50709;SDS011;37033;49.994;21.992;2023-05-07T09:06:46;7.10;;;4.80;;
50709;SDS011;37033;49.994;21.992;2023-05-07T09:09:21;9.60;;;7.80;;
50709;SDS011;37033;49.994;21.992;2023-05-07T09:11:57;7.30;;;6.60;;
50709;SDS011;37033;49.994;21.992;2023-05-07T09:14:29;7.30;;;6.50;;
50709;SDS011;37033;49.994;21.992;2023-05-07T09:17:03;8.70;;;7.20;;
50709;SDS011;37033;49.994;21.992;2023-05-07T09:19:34;9.70;;;7.90;;
50709;SDS011;37033;49.994;21.992;2023-05-07T09:22:11;9.70;;;6.50;;
50709;SDS011;37033;49.994;21.992;2023-05-07T09:24:48;6.60;;;5.20;;
50709;SDS011;37033;49.994;21.992;2023-05-07T09:27:27;6.50;;;5.50;;
50709;SDS011;37033;49.994;21.992;2023-05-07T09:29:59;5.40;;;4.10;;
50709;SDS011;37033;49.994;21.992;2023-05-07T09:35:08;5.90;;;4.60;;
50709;SDS011;37033;49.994;21.992;2023-05-07T09:37:50;8.90;;;4.90;;
50709;SDS011;37033;49.994;21.992;2023-05-07T09:40:24;10.40;;;6.10;;
50709;SDS011;37033;49.994;21.992;2023-05-07T09:43:07;6.80;;;5.30;;
50709;SDS011;37033;49.994;21.992;2023-05-07T09:45:42;8.00;;;7.20;;
50709;SDS011;37033;49.994;21.992;2023-05-07T09:48:19;7.40;;;5.80;;
50709;SDS011;37033;49.994;21.992;2023-05-07T09:50:50;7.30;;;4.70;;
50709;SDS011;37033;49.994;21.992;2023-05-07T09:53:26;8.60;;;5.00;;
50709;SDS011;37033;49.994;21.992;2023-05-07T09:56:07;6.60;;;5.10;;
50709;SDS011;37033;49.994;21.992;2023-05-07T09:58:46;7.60;;;5.30;;
50709;SDS011;37033;49.994;21.992;2023-05-07T10:01:22;7.30;;;6.40;;
50709;SDS011;37033;49.994;21.992;2023-05-07T10:03:55;7.70;;;5.80;;
50709;SDS011;37033;49.994;21.992;2023-05-07T10:06:28;12.50;;;5.80;;
50709;SDS011;37033;49.994;21.992;2023-05-07T10:09:01;7.60;;;5.90;;
50709;SDS011;37033;49.994;21.992;2023-05-07T10:11:38;12.40;;;7.40;;
50709;SDS011;37033;49.994;21.992;2023-05-07T10:14:10;13.20;;;7.40;;
50709;SDS011;37033;49.994;21.992;2023-05-07T10:16:43;7.40;;;5.50;;
50709;SDS011;37033;49.994;21.992;2023-05-07T10:19:16;7.70;;;5.20;;
50709;SDS011;37033;49.994;21.992;2023-05-07T10:21:51;7.00;;;5.60;;
50709;SDS011;37033;49.994;21.992;2023-05-07T10:24:31;7.50;;;5.80;;
50709;SDS011;37033;49.994;21.992;2023-05-07T10:27:07;7.90;;;6.20;;
50709;SDS011;37033;49.994;21.992;2023-05-07T10:29:45;6.10;;;4.90;;
50709;SDS011;37033;49.994;21.992;2023-05-07T10:32:37;7.40;;;5.30;;
50709;SDS011;37033;49.994;21.992;2023-05-07T10:35:19;6.80;;;5.20;;
50709;SDS011;37033;49.994;21.992;2023-05-07T10:38:00;5.30;;;4.50;;
50709;SDS011;37033;49.994;21.992;2023-05-07T10:40:31;7.30;;;5.70;;
50709;SDS011;37033;49.994;21.992;2023-05-07T10:43:10;6.20;;;4.70;;
50709;SDS011;37033;49.994;21.992;2023-05-07T10:45:43;4.20;;;3.80;;
50709;SDS011;37033;49.994;21.992;2023-05-07T10:51:40;7.10;;;4.50;;
50709;SDS011;37033;49.994;21.992;2023-05-07T10:54:22;6.00;;;4.70;;
50709;SDS011;37033;49.994;21.992;2023-05-07T10:56:55;7.30;;;4.80;;
50709;SDS011;37033;49.994;21.992;2023-05-07T10:59:49;7.10;;;4.70;;
50709;SDS011;37033;49.994;21.992;2023-05-07T11:02:23;7.40;;;5.40;;
50709;SDS011;37033;49.994;21.992;2023-05-07T11:05:25;5.00;;;4.30;;
50709;SDS011;37033;49.994;21.992;2023-05-07T11:07:57;5.60;;;4.20;;
50709;SDS011;37033;49.994;21.992;2023-05-07T11:16:19;5.40;;;3.90;;
50709;SDS011;37033;49.994;21.992;2023-05-07T11:18:51;6.10;;;4.70;;
50709;SDS011;37033;49.994;21.992;2023-05-07T11:21:36;5.70;;;4.70;;
50709;SDS011;37033;49.994;21.992;2023-05-07T11:24:13;6.80;;;5.40;;
50709;SDS011;37033;49.994;21.992;2023-05-07T11:26:46;6.10;;;4.60;;
50709;SDS011;37033;49.994;21.992;2023-05-07T11:31:50;6.20;;;4.00;;
50709;SDS011;37033;49.994;21.992;2023-05-07T11:34:22;5.90;;;4.40;;
50709;SDS011;37033;49.994;21.992;2023-05-07T11:36:54;7.80;;;4.20;;
50709;SDS011;37033;49.994;21.992;2023-05-07T11:39:28;6.80;;;4.70;;
50709;SDS011;37033;49.994;21.992;2023-05-07T11:42:00;6.10;;;4.30;;
50709;SDS011;37033;49.994;21.992;2023-05-07T11:44:42;4.90;;;4.30;;
50709;SDS011;37033;49.994;21.992;2023-05-07T11:49:50;4.70;;;3.90;;
50709;SDS011;37033;49.994;21.992;2023-05-07T11:52:26;5.10;;;3.70;;
50709;SDS011;37033;49.994;21.992;2023-05-07T11:55:01;5.00;;;4.00;;
50709;SDS011;37033;49.994;21.992;2023-05-07T11:57:32;6.30;;;4.00;;
50709;SDS011;37033;49.994;21.992;2023-05-07T12:00:10;5.00;;;3.50;;
50709;SDS011;37033;49.994;21.992;2023-05-07T12:02:48;4.70;;;3.80;;
50709;SDS011;37033;49.994;21.992;2023-05-07T12:05:22;5.30;;;4.30;;
50709;SDS011;37033;49.994;21.992;2023-05-07T12:07:57;5.20;;;3.50;;
50709;SDS011;37033;49.994;21.992;2023-05-07T12:10:28;6.40;;;5.20;;
50709;SDS011;37033;49.994;21.992;2023-05-07T12:13:04;5.70;;;3.30;;
50709;SDS011;37033;49.994;21.992;2023-05-07T12:15:44;6.10;;;4.80;;
50709;SDS011;37033;49.994;21.992;2023-05-07T12:18:18;9.00;;;5.10;;
50709;SDS011;37033;49.994;21.992;2023-05-07T12:20:53;5.70;;;4.10;;
50709;SDS011;37033;49.994;21.992;2023-05-07T12:23:23;5.60;;;3.90;;
50709;SDS011;37033;49.994;21.992;2023-05-07T12:25:57;5.80;;;4.30;;
50709;SDS011;37033;49.994;21.992;2023-05-07T12:28:36;7.70;;;4.50;;
50709;SDS011;37033;49.994;21.992;2023-05-07T12:31:10;9.00;;;3.70;;
50709;SDS011;37033;49.994;21.992;2023-05-07T12:33:48;6.20;;;4.30;;
50709;SDS011;37033;49.994;21.992;2023-05-07T12:36:24;5.40;;;3.50;;
50709;SDS011;37033;49.994;21.992;2023-05-07T12:39:07;7.20;;;3.50;;
50709;SDS011;37033;49.994;21.992;2023-05-07T12:41:53;7.80;;;4.30;;
50709;SDS011;37033;49.994;21.992;2023-05-07T12:44:36;5.00;;;3.50;;
50709;SDS011;37033;49.994;21.992;2023-05-07T12:47:14;3.80;;;3.10;;
50709;SDS011;37033;49.994;21.992;2023-05-07T12:49:48;4.00;;;3.10;;
50709;SDS011;37033;49.994;21.992;2023-05-07T12:52:19;5.30;;;3.40;;
50709;SDS011;37033;49.994;21.992;2023-05-07T12:54:50;6.60;;;4.10;;
50709;SDS011;37033;49.994;21.992;2023-05-07T12:57:29;6.10;;;3.30;;
50709;SDS011;37033;49.994;21.992;2023-05-07T13:00:12;4.40;;;2.50;;
50709;SDS011;37033;49.994;21.992;2023-05-07T13:02:48;6.70;;;3.40;;
50709;SDS011;37033;49.994;21.992;2023-05-07T13:05:23;4.90;;;3.00;;
50709;SDS011;37033;49.994;21.992;2023-05-07T13:07:59;5.40;;;3.10;;
50709;SDS011;37033;49.994;21.992;2023-05-07T13:10:30;6.90;;;3.80;;
50709;SDS011;37033;49.994;21.992;2023-05-07T13:13:06;3.70;;;3.10;;
50709;SDS011;37033;49.994;21.992;2023-05-07T13:15:37;4.10;;;3.50;;
50709;SDS011;37033;49.994;21.992;2023-05-07T13:18:11;7.60;;;3.60;;
50709;SDS011;37033;49.994;21.992;2023-05-07T13:20:44;2.80;;;2.40;;
50709;SDS011;37033;49.994;21.992;2023-05-07T13:23:18;3.60;;;2.60;;
50709;SDS011;37033;49.994;21.992;2023-05-07T13:25:49;5.00;;;2.60;;
50709;SDS011;37033;49.994;21.992;2023-05-07T13:28:21;3.30;;;2.90;;
50709;SDS011;37033;49.994;21.992;2023-05-07T13:30:58;5.90;;;3.70;;
50709;SDS011;37033;49.994;21.992;2023-05-07T13:33:35;6.10;;;3.00;;
50709;SDS011;37033;49.994;21.992;2023-05-07T13:36:08;3.60;;;2.60;;
50709;SDS011;37033;49.994;21.992;2023-05-07T13:38:42;4.40;;;2.80;;
50709;SDS011;37033;49.994;21.992;2023-05-07T13:41:19;3.80;;;2.90;;
50709;SDS011;37033;49.994;21.992;2023-05-07T13:43:52;3.60;;;2.30;;
50709;SDS011;37033;49.994;21.992;2023-05-07T13:46:23;4.40;;;2.80;;
50709;SDS011;37033;49.994;21.992;2023-05-07T13:48:54;4.20;;;2.60;;
50709;SDS011;37033;49.994;21.992;2023-05-07T13:51:24;3.90;;;2.40;;
50709;SDS011;37033;49.994;21.992;2023-05-07T13:53:56;3.20;;;2.90;;
50709;SDS011;37033;49.994;21.992;2023-05-07T13:56:27;5.30;;;3.40;;
50709;SDS011;37033;49.994;21.992;2023-05-07T13:58:59;5.60;;;3.90;;
50709;SDS011;37033;49.994;21.992;2023-05-07T14:01:30;4.60;;;3.00;;
50709;SDS011;37033;49.994;21.992;2023-05-07T14:04:01;3.90;;;3.10;;
50709;SDS011;37033;49.994;21.992;2023-05-07T14:06:35;4.90;;;2.80;;
50709;SDS011;37033;49.994;21.992;2023-05-07T14:09:06;4.00;;;2.80;;
50709;SDS011;37033;49.994;21.992;2023-05-07T14:11:40;3.90;;;2.20;;
50709;SDS011;37033;49.994;21.992;2023-05-07T14:14:10;4.90;;;2.20;;
50709;SDS011;37033;49.994;21.992;2023-05-07T14:16:41;4.50;;;2.20;;
50709;SDS011;37033;49.994;21.992;2023-05-07T14:19:12;4.30;;;2.20;;
50709;SDS011;37033;49.994;21.992;2023-05-07T14:21:48;2.80;;;2.50;;
50709;SDS011;37033;49.994;21.992;2023-05-07T14:24:24;4.50;;;2.80;;
50709;SDS011;37033;49.994;21.992;2023-05-07T14:26:58;3.90;;;2.50;;
50709;SDS011;37033;49.994;21.992;2023-05-07T14:29:34;3.30;;;2.10;;
50709;SDS011;37033;49.994;21.992;2023-05-07T14:32:05;3.50;;;2.50;;
50709;SDS011;37033;49.994;21.992;2023-05-07T14:34:39;3.60;;;2.20;;
50709;SDS011;37033;49.994;21.992;2023-05-07T14:37:12;3.80;;;1.70;;
50709;SDS011;37033;49.994;21.992;2023-05-07T14:39:43;3.50;;;2.10;;
50709;SDS011;37033;49.994;21.992;2023-05-07T14:42:14;6.00;;;2.80;;
50709;SDS011;37033;49.994;21.992;2023-05-07T14:44:44;3.00;;;1.90;;
50709;SDS011;37033;49.994;21.992;2023-05-07T14:47:18;2.60;;;1.90;;
50709;SDS011;37033;49.994;21.992;2023-05-07T14:49:51;3.70;;;2.00;;
50709;SDS011;37033;49.994;21.992;2023-05-07T14:52:25;1.80;;;1.50;;
50709;SDS011;37033;49.994;21.992;2023-05-07T14:54:58;3.00;;;2.10;;
50709;SDS011;37033;49.994;21.992;2023-05-07T14:57:31;7.50;;;1.90;;
50709;SDS011;37033;49.994;21.992;2023-05-07T15:00:09;2.90;;;2.00;;
50709;SDS011;37033;49.994;21.992;2023-05-07T15:02:41;6.20;;;2.20;;
50709;SDS011;37033;49.994;21.992;2023-05-07T15:05:15;3.90;;;1.80;;
50709;SDS011;37033;49.994;21.992;2023-05-07T15:07:49;2.70;;;1.80;;
50709;SDS011;37033;49.994;21.992;2023-05-07T15:10:29;3.20;;;1.50;;
50709;SDS011;37033;49.994;21.992;2023-05-07T15:13:11;2.60;;;1.60;;
50709;SDS011;37033;49.994;21.992;2023-05-07T15:15:42;3.00;;;2.10;;